Time;durP1;ratioP1;P1;durP2;ratioP2;P2;SDS_P1;SDS_P2;PMS_P1;PMS_P2;Temp;Humidity;BMP_temperature;BMP_pressure;BME280_temperature;BME280_humidity;BME280_pressure;Samples;Min_cycle;Max_cycle;Signal;HPM_P1;HPM_P2
2023/08/03 00:00:22;;;;;;;0.30;0.30;;;20.80;99.90;;;;;;5043775;28;20474;-75
2023/08/03 00:02:48;;;;;;;0.28;0.28;;;20.80;99.90;;;;;;5044644;28;20100;-76
2023/08/03 00:05:17;;;;;;;0.10;0.10;;;20.90;99.90;;;;;;5044485;28;20025;-74
2023/08/03 00:07:44;;;;;;;0.10;0.10;;;20.90;99.90;;;;;;5045033;28;20029;-76
2023/08/03 00:10:10;;;;;;;0.47;0.47;;;20.90;99.90;;;;;;5045968;28;20025;-75
2023/08/03 00:12:36;;;;;;;0.10;0.10;;;20.30;99.90;;;;;;5052122;28;20020;-75
2023/08/03 00:15:02;;;;;;;0.20;0.20;;;20.30;99.90;;;;;;5071452;28;20029;-76
2023/08/03 00:17:28;;;;;;;0.28;0.28;;;20.20;99.90;;;;;;5071882;28;20103;-76
2023/08/03 00:19:58;;;;;;;0.17;0.17;;;20.20;99.90;;;;;;5050713;28;20102;-75
2023/08/03 00:22:28;;;;;;;0.10;0.10;;;20.00;99.90;;;;;;5065088;28;20051;-76
2023/08/03 00:24:54;;;;;;;0.20;0.20;;;20.00;99.90;;;;;;5064391;28;20027;-78
2023/08/03 00:27:20;;;;;;;0.10;0.10;;;19.90;99.90;;;;;;5065112;28;20028;-74
2023/08/03 00:29:47;;;;;;;0.13;0.13;;;20.00;99.90;;;;;;5071062;28;20036;-75
2023/08/03 00:32:14;;;;;;;0.10;0.10;;;20.00;99.90;;;;;;5062164;28;20035;-74
2023/08/03 00:34:39;;;;;;;0.00;0.00;;;19.70;99.90;;;;;;5061189;28;20086;-74
2023/08/03 00:37:05;;;;;;;0.10;0.10;;;19.60;99.90;;;;;;5069271;28;20020;-75
2023/08/03 00:39:31;;;;;;;0.10;0.10;;;19.50;99.90;;;;;;5049943;28;20268;-74
2023/08/03 00:41:57;;;;;;;0.10;0.10;;;19.40;99.90;;;;;;5051238;28;20741;-77
2023/08/03 00:44:23;;;;;;;0.10;0.10;;;19.40;99.90;;;;;;5044087;28;20027;-77
2023/08/03 00:46:48;;;;;;;0.10;0.10;;;19.50;99.90;;;;;;5043094;28;20029;-77
2023/08/03 00:49:15;;;;;;;0.10;0.10;;;19.50;99.90;;;;;;5043001;28;20257;-75
2023/08/03 00:51:40;;;;;;;0.45;0.43;;;19.90;99.90;;;;;;5045922;28;20029;-76
2023/08/03 00:54:07;;;;;;;0.10;0.10;;;19.70;99.90;;;;;;5064822;28;20032;-75
2023/08/03 00:56:36;;;;;;;0.10;0.10;;;19.60;99.90;;;;;;5062490;28;20474;-77
2023/08/03 00:59:04;;;;;;;0.10;0.10;;;18.00;99.90;;;;;;5046450;28;20037;-76
2023/08/03 01:01:29;;;;;;;0.10;0.10;;;19.60;99.90;;;;;;5063724;28;20028;-75
2023/08/03 01:03:55;;;;;;;0.10;0.10;;;19.90;99.90;;;;;;5042325;28;20020;-75
2023/08/03 01:06:22;;;;;;;0.28;0.28;;;19.80;99.90;;;;;;5042558;28;20025;-75
2023/08/03 01:08:48;;;;;;;0.10;0.10;;;20.00;99.90;;;;;;5053139;28;20013;-74
2023/08/03 01:11:14;;;;;;;0.28;0.28;;;20.20;99.90;;;;;;5059428;28;20106;-75
2023/08/03 01:13:41;;;;;;;0.10;0.10;;;20.00;99.90;;;;;;5064882;28;20365;-75
2023/08/03 01:16:11;;;;;;;0.80;0.80;;;20.10;99.90;;;;;;5058621;28;20035;-75
2023/08/03 01:18:38;;;;;;;0.10;0.10;;;20.00;99.90;;;;;;5041867;28;20029;-75
2023/08/03 01:21:06;;;;;;;0.10;0.10;;;19.90;99.90;;;;;;5059460;28;20035;-74
2023/08/03 01:23:33;;;;;;;0.20;0.20;;;21.20;99.90;;;;;;5058305;28;20021;-75
2023/08/03 01:25:58;;;;;;;0.10;0.10;;;20.00;99.90;;;;;;5058452;28;20025;-75
2023/08/03 01:28:25;;;;;;;0.10;0.10;;;19.70;99.90;;;;;;5060128;28;20229;-74
2023/08/03 01:30:51;;;;;;;1.27;1.17;;;19.50;99.90;;;;;;5057543;28;20165;-75
2023/08/03 01:33:17;;;;;;;0.10;0.10;;;19.30;99.90;;;;;;5058102;28;20305;-75
2023/08/03 01:35:45;;;;;;;0.20;0.20;;;20.00;99.90;;;;;;5063530;28;20052;-76
2023/08/03 01:38:13;;;;;;;0.10;0.10;;;20.40;99.90;;;;;;5044135;28;20048;-77
2023/08/03 01:40:40;;;;;;;0.10;0.10;;;17.40;99.90;;;;;;5063386;28;20029;-77
2023/08/03 01:43:06;;;;;;;0.10;0.10;;;20.90;99.90;;;;;;5041437;28;20031;-74
2023/08/03 01:45:32;;;;;;;1.75;1.27;;;21.10;99.90;;;;;;5068029;28;20033;-75
2023/08/03 01:47:58;;;;;;;0.10;0.10;;;21.10;99.90;;;;;;5081609;28;20017;-74
2023/08/03 01:50:23;;;;;;;0.03;0.03;;;20.90;99.90;;;;;;5075322;28;20100;-74
2023/08/03 01:52:49;;;;;;;0.10;0.10;;;21.10;99.90;;;;;;5072459;28;20106;-75
2023/08/03 01:55:19;;;;;;;0.10;0.10;;;20.60;99.90;;;;;;5078786;28;20040;-81
2023/08/03 01:57:45;;;;;;;0.28;0.28;;;20.90;99.90;;;;;;5077428;28;20020;-74
2023/08/03 02:00:11;;;;;;;0.10;0.10;;;20.20;99.90;;;;;;5061236;28;20097;-75
2023/08/03 02:02:37;;;;;;;0.10;0.10;;;20.40;99.90;;;;;;5061619;28;20095;-75
2023/08/03 02:05:05;;;;;;;0.17;0.17;;;20.10;99.90;;;;;;5061117;28;20308;-74
2023/08/03 02:07:53;;;;;;;0.10;0.10;;;20.30;99.90;;;;;;5059156;28;20034;-76
2023/08/03 02:10:20;;;;;;;0.10;0.10;;;20.50;99.90;;;;;;5058205;28;20028;-75
2023/08/03 02:12:46;;;;;;;0.10;0.10;;;20.70;99.90;;;;;;5057955;28;20026;-77
2023/08/03 02:15:15;;;;;;;0.30;0.30;;;20.70;99.90;;;;;;5063849;28;20116;-86
2023/08/03 02:17:42;;;;;;;0.38;0.38;;;21.00;99.90;;;;;;5063856;28;20024;-78
2023/08/03 02:20:10;;;;;;;0.10;0.10;;;21.00;99.90;;;;;;5074448;28;20243;-77
2023/08/03 02:22:36;;;;;;;0.40;0.40;;;22.70;99.90;;;;;;5071009;28;20044;-77
2023/08/03 02:25:02;;;;;;;0.10;0.10;;;21.00;99.90;;;;;;5080243;28;20517;-74
2023/08/03 02:27:32;;;;;;;0.10;0.10;;;21.00;99.90;;;;;;5067624;28;20448;-75
2023/08/03 02:29:58;;;;;;;0.10;0.10;;;20.80;99.90;;;;;;5066902;28;20039;-74
2023/08/03 02:32:27;;;;;;;0.10;0.10;;;21.10;99.90;;;;;;5064272;28;20024;-75
2023/08/03 02:34:52;;;;;;;0.38;0.38;;;21.10;99.90;;;;;;5047289;28;20225;-78
2023/08/03 02:37:18;;;;;;;0.10;0.10;;;21.10;99.90;;;;;;5059844;28;20518;-75
2023/08/03 02:39:44;;;;;;;0.17;0.17;;;21.20;99.90;;;;;;5059267;28;20740;-78
2023/08/03 02:42:12;;;;;;;0.08;0.08;;;21.10;99.90;;;;;;5062232;28;20047;-78
2023/08/03 02:44:38;;;;;;;0.20;0.20;;;21.00;99.90;;;;;;5047605;28;20050;-75
2023/08/03 02:47:04;;;;;;;0.10;0.10;;;21.00;99.90;;;;;;5064245;28;20025;-76
2023/08/03 02:49:32;;;;;;;0.10;0.10;;;20.70;99.90;;;;;;5065273;28;20308;-76
2023/08/03 02:51:59;;;;;;;0.00;0.00;;;21.00;99.90;;;;;;5064627;28;20145;-76
2023/08/03 02:54:24;;;;;;;0.20;0.20;;;21.10;99.90;;;;;;5068054;28;20525;-76
2023/08/03 02:56:51;;;;;;;0.10;0.10;;;20.80;99.90;;;;;;5046672;28;20123;-74
2023/08/03 02:59:18;;;;;;;0.10;0.10;;;20.80;99.90;;;;;;5062656;28;20027;-74
2023/08/03 03:01:44;;;;;;;0.10;0.10;;;20.90;99.90;;;;;;5061077;28;20043;-74
2023/08/03 03:04:10;;;;;;;0.10;0.10;;;23.80;99.90;;;;;;5061940;28;20386;-75
2023/08/03 03:06:38;;;;;;;0.32;0.32;;;20.60;99.90;;;;;;5066598;28;20253;-75
2023/08/03 03:09:04;;;;;;;0.10;0.10;;;20.30;99.90;;;;;;5061415;28;20174;-75
2023/08/03 03:11:30;;;;;;;0.20;0.20;;;20.10;99.90;;;;;;5064244;28;20025;-74
2023/08/03 03:13:57;;;;;;;0.10;0.10;;;19.80;99.90;;;;;;5076576;28;20045;-77
2023/08/03 03:16:25;;;;;;;0.10;0.10;;;20.20;99.90;;;;;;5078342;28;20044;-74
2023/08/03 03:18:53;;;;;;;0.10;0.10;;;20.30;99.90;;;;;;5073002;28;20027;-73
2023/08/03 03:21:41;;;;;;;0.10;0.10;;;19.90;99.90;;;;;;5080863;28;20031;-75
2023/08/03 03:24:07;;;;;;;0.10;0.10;;;19.90;99.90;;;;;;5083844;28;20047;-75
2023/08/03 03:26:35;;;;;;;0.10;0.10;;;19.90;99.90;;;;;;5072511;28;20008;-77
2023/08/03 03:29:01;;;;;;;0.10;0.10;;;19.90;99.90;;;;;;5086336;28;20031;-74
2023/08/03 03:31:35;;;;;;;0.30;0.30;;;20.50;99.90;;;;;;5086300;28;20021;-75
2023/08/03 03:34:05;;;;;;;0.10;0.10;;;20.00;99.90;;;;;;5087385;28;20026;-74
2023/08/03 03:36:31;;;;;;;0.10;0.10;;;20.00;99.90;;;;;;5084775;28;20035;-75
2023/08/03 03:39:03;;;;;;;0.10;0.10;;;20.10;99.90;;;;;;5085801;28;20070;-73
2023/08/03 03:41:39;;;;;;;0.20;0.20;;;19.60;99.90;;;;;;5084052;28;20033;-75
2023/08/03 03:44:08;;;;;;;0.10;0.10;;;;;;;;;;5065091;28;20051;-76
2023/08/03 03:46:34;;;;;;;0.17;0.17;;;;;;;;;;5046369;28;20032;-75
2023/08/03 03:49:00;;;;;;;0.10;0.10;;;19.10;99.90;;;;;;5073959;28;20077;-75
2023/08/03 03:51:26;;;;;;;0.10;0.10;;;19.10;99.90;;;;;;5042977;28;20832;-77
2023/08/03 03:53:52;;;;;;;0.10;0.10;;;18.60;99.90;;;;;;5042184;28;20020;-84
2023/08/03 03:56:18;;;;;;;0.10;0.10;;;18.60;99.90;;;;;;5060029;28;20024;-80
2023/08/03 03:58:44;;;;;;;0.10;0.10;;;19.20;99.90;;;;;;5059957;28;20313;-76
2023/08/03 04:01:10;;;;;;;0.98;0.98;;;19.10;99.90;;;;;;5041490;28;20044;-77
2023/08/03 04:03:35;;;;;;;0.10;0.10;;;19.30;99.90;;;;;;5059798;28;20086;-75
2023/08/03 04:06:01;;;;;;;0.10;0.10;;;19.30;99.90;;;;;;5041352;28;20021;-75
2023/08/03 04:08:27;;;;;;;0.10;0.10;;;19.10;99.90;;;;;;5041238;28;20105;-76
2023/08/03 04:10:53;;;;;;;0.10;0.10;;;18.90;99.90;;;;;;5040656;28;20506;-76
2023/08/03 04:13:18;;;;;;;0.13;0.13;;;19.00;99.90;;;;;;5041370;28;20052;-76
2023/08/03 04:15:44;;;;;;;0.10;0.10;;;18.90;99.90;;;;;;5041676;28;20411;-75
2023/08/03 04:18:10;;;;;;;0.40;0.40;;;18.80;99.90;;;;;;5040696;28;20115;-76
2023/08/03 04:20:36;;;;;;;0.38;0.38;;;18.40;99.90;;;;;;5041136;28;20021;-79
2023/08/03 04:23:02;;;;;;;0.10;0.10;;;18.40;99.90;;;;;;5041390;28;20024;-76
2023/08/03 04:25:28;;;;;;;0.10;0.10;;;18.70;99.90;;;;;;5041876;28;20802;-77
2023/08/03 04:27:53;;;;;;;0.10;0.10;;;18.70;99.90;;;;;;5041153;28;20537;-77
2023/08/03 04:30:19;;;;;;;0.10;0.10;;;18.30;99.90;;;;;;5059155;28;20055;-76
2023/08/03 04:32:45;;;;;;;0.20;0.20;;;18.50;99.90;;;;;;5059434;28;20027;-78
2023/08/03 04:35:11;;;;;;;0.10;0.10;;;18.60;99.90;;;;;;5058858;28;20406;-78
2023/08/03 04:37:36;;;;;;;0.10;0.10;;;18.30;99.90;;;;;;5040886;28;20047;-75
2023/08/03 04:40:04;;;;;;;0.10;0.10;;;18.50;99.90;;;;;;5041124;28;20233;-79
2023/08/03 04:42:35;;;;;;;0.10;0.10;;;19.10;99.90;;;;;;5042032;28;20032;-77
2023/08/03 04:45:04;;;;;;;0.10;0.10;;;19.90;99.90;;;;;;5041516;28;20101;-79
2023/08/03 04:47:30;;;;;;;0.20;0.20;;;19.90;99.90;;;;;;5041627;28;20398;-79
2023/08/03 04:49:56;;;;;;;0.10;0.10;;;20.00;99.90;;;;;;5060524;28;20479;-83
2023/08/03 04:52:21;;;;;;;0.55;0.55;;;20.30;99.90;;;;;;5060406;28;20391;-82
2023/08/03 04:54:47;;;;;;;0.10;0.10;;;20.30;99.90;;;;;;5059575;28;20104;-81
2023/08/03 04:57:13;;;;;;;0.13;0.13;;;20.10;99.90;;;;;;5059456;28;20030;-82
2023/08/03 04:59:39;;;;;;;0.15;0.15;;;20.10;99.90;;;;;;5058933;28;20064;-85
2023/08/03 05:02:05;;;;;;;0.10;0.10;;;20.10;99.90;;;;;;5059509;28;20503;-76
2023/08/03 05:04:30;;;;;;;0.10;0.10;;;20.10;99.90;;;;;;5059016;28;20016;-91
2023/08/03 05:06:56;;;;;;;0.20;0.20;;;20.40;99.90;;;;;;5058744;28;20220;-86
2023/08/03 05:09:22;;;;;;;0.10;0.10;;;20.50;99.90;;;;;;5059657;28;20052;-82
2023/08/03 05:11:48;;;;;;;0.10;0.10;;;20.50;99.90;;;;;;5059466;28;20422;-78
2023/08/03 05:14:14;;;;;;;0.10;0.10;;;20.50;99.90;;;;;;5058765;28;20333;-89
2023/08/03 05:16:39;;;;;;;0.13;0.13;;;20.70;99.90;;;;;;5040799;28;20032;-87
2023/08/03 05:19:05;;;;;;;0.10;0.10;;;20.80;99.90;;;;;;5059509;28;20020;-84
2023/08/03 05:21:31;;;;;;;0.10;0.10;;;20.80;99.90;;;;;;5059268;28;20036;-79
2023/08/03 05:23:56;;;;;;;0.10;0.10;;;20.80;99.90;;;;;;5058652;28;20340;-81
2023/08/03 05:26:22;;;;;;;0.10;0.10;;;18.90;99.90;;;;;;5058683;28;20099;-86
2023/08/03 05:28:48;;;;;;;0.10;0.10;;;21.10;99.90;;;;;;5056895;28;20115;-80
2023/08/03 05:31:14;;;;;;;0.10;0.10;;;21.00;99.90;;;;;;5040048;28;20182;-76
2023/08/03 05:33:40;;;;;;;0.10;0.10;;;21.10;99.90;;;;;;5040412;28;20031;-83
2023/08/03 05:36:05;;;;;;;0.10;0.10;;;21.30;99.90;;;;;;5058698;28;20052;-78
2023/08/03 05:38:31;;;;;;;1.67;1.58;;;21.40;99.90;;;;;;5039926;28;20012;-76
2023/08/03 05:40:57;;;;;;;0.10;0.10;;;21.40;99.90;;;;;;5039862;28;20040;-82
2023/08/03 05:43:26;;;;;;;0.10;0.10;;;21.30;99.90;;;;;;5058730;28;20054;-81
2023/08/03 05:46:00;;;;;;;0.20;0.20;;;21.40;99.90;;;;;;5058240;28;20016;-77
2023/08/03 05:48:28;;;;;;;2.15;2.05;;;21.50;99.90;;;;;;5057941;28;20048;-80
2023/08/03 05:50:55;;;;;;;0.82;0.82;;;21.20;99.90;;;;;;5057986;28;20013;-80
2023/08/03 05:53:21;;;;;;;0.10;0.10;;;21.10;99.90;;;;;;5058968;28;20085;-77
2023/08/03 05:55:47;;;;;;;0.10;0.10;;;21.30;99.90;;;;;;5059313;28;20248;-81
2023/08/03 05:58:17;;;;;;;0.88;0.88;;;21.50;99.90;;;;;;5058652;28;20427;-76
2023/08/03 06:00:47;;;;;;;13.35;3.92;;;21.60;99.90;;;;;;5058084;28;20037;-77
2023/08/03 06:03:15;;;;;;;13.60;4.95;;;21.70;99.90;;;;;;5057978;28;20689;-81
2023/08/03 06:05:42;;;;;;;6.75;6.25;;;21.50;99.90;;;;;;5058202;28;20093;-89
2023/08/03 06:08:12;;;;;;;2.50;1.48;;;21.50;99.90;;;;;;5058402;28;20438;-79
2023/08/03 06:10:39;;;;;;;4.88;4.60;;;21.80;99.90;;;;;;5057866;28;20532;-76
2023/08/03 06:13:05;;;;;;;0.93;0.82;;;21.80;99.90;;;;;;5057545;28;20221;-84
2023/08/03 06:15:31;;;;;;;0.10;0.10;;;21.90;99.90;;;;;;5040810;28;20025;-76
2023/08/03 06:18:02;;;;;;;0.10;0.10;;;22.00;99.90;;;;;;5041698;28;20403;-80
2023/08/03 06:20:29;;;;;;;0.85;0.85;;;22.10;99.90;;;;;;5061461;28;20134;-87
2023/08/03 06:22:55;;;;;;;0.55;0.55;;;22.20;99.90;;;;;;5043986;28;20579;-78
2023/08/03 06:25:22;;;;;;;5.45;1.50;;;21.80;99.90;;;;;;5061787;28;20082;-83
2023/08/03 06:27:48;;;;;;;0.20;0.20;;;22.20;99.90;;;;;;5061607;28;20106;-80
2023/08/03 06:30:17;;;;;;;2.10;2.00;;;22.40;99.90;;;;;;5046203;28;20736;-78
2023/08/03 06:32:43;;;;;;;5.70;2.75;;;22.50;99.90;;;;;;5063615;28;20059;-85
2023/08/03 06:35:39;;;;;;;0.43;0.40;;;22.60;99.90;;;;;;5045453;28;20038;-76
2023/08/03 06:38:07;;;;;;;6.95;6.43;;;22.70;99.90;;;;;;4999200;28;20034;-78
2023/08/03 06:40:34;;;;;;;1.73;1.63;;;22.80;99.90;;;;;;4983617;28;20026;-80
2023/08/03 06:43:01;;;;;;;3.15;3.00;;;22.80;99.90;;;;;;5001790;28;20034;-77
2023/08/03 06:45:31;;;;;;;0.10;0.10;;;22.90;99.90;;;;;;5002579;28;20041;-78
2023/08/03 06:47:58;;;;;;;0.20;0.20;;;23.00;99.90;;;;;;5001177;28;20108;-81
2023/08/03 06:50:24;;;;;;;0.10;0.10;;;23.00;99.90;;;;;;5001704;28;20053;-79
2023/08/03 06:52:51;;;;;;;0.10;0.10;;;23.10;99.90;;;;;;5000769;28;20018;-76
2023/08/03 06:55:18;;;;;;;0.10;0.10;;;23.20;99.90;;;;;;4983335;28;20033;-76
2023/08/03 06:57:44;;;;;;;0.25;0.25;;;;;;;;;;5000639;28;20419;-80
2023/08/03 07:00:11;;;;;;;0.45;0.45;;;23.60;99.90;;;;;;4999728;28;20060;-77
2023/08/03 07:02:37;;;;;;;0.10;0.10;;;24.10;99.90;;;;;;4997850;28;20254;-78
2023/08/03 07:05:06;;;;;;;0.10;0.10;;;23.90;99.90;;;;;;4998466;28;20512;-86
2023/08/03 07:07:32;;;;;;;5.40;1.45;;;24.10;99.90;;;;;;4998607;28;20120;-87
2023/08/03 07:09:59;;;;;;;0.10;0.10;;;24.30;99.90;;;;;;4999679;28;20273;-85
2023/08/03 07:12:26;;;;;;;0.10;0.10;;;24.40;99.90;;;;;;4998737;28;20251;-76
2023/08/03 07:14:51;;;;;;;0.22;0.22;;;24.50;99.90;;;;;;5020570;28;20471;-79
2023/08/03 07:17:17;;;;;;;0.10;0.10;;;24.70;99.90;;;;;;5043236;28;20564;-82
2023/08/03 07:19:43;;;;;;;0.38;0.38;;;23.10;99.90;;;;;;5061847;28;20024;-80
2023/08/03 07:22:09;;;;;;;3.13;2.90;;;24.90;99.90;;;;;;5060894;28;20301;-77
2023/08/03 07:24:36;;;;;;;0.10;0.10;;;25.10;99.90;;;;;;5060693;28;20410;-80
2023/08/03 07:27:02;;;;;;;0.10;0.10;;;25.30;99.90;;;;;;5060436;28;20043;-79
2023/08/03 07:29:29;;;;;;;0.30;0.30;;;25.40;99.90;;;;;;5042738;28;20219;-78
2023/08/03 07:31:55;;;;;;;0.10;0.10;;;26.50;99.90;;;;;;5044895;28;20028;-85
2023/08/03 07:34:22;;;;;;;0.55;0.55;;;25.80;99.90;;;;;;5044094;28;20058;-80
2023/08/03 07:36:55;;;;;;;0.82;0.80;;;26.00;99.90;;;;;;5061174;28;20309;-82
2023/08/03 07:39:21;;;;;;;0.10;0.10;;;26.20;99.90;;;;;;5060899;28;20717;-78
2023/08/03 07:41:48;;;;;;;0.20;0.20;;;26.30;99.90;;;;;;5060598;28;20111;-81
2023/08/03 07:44:18;;;;;;;0.10;0.10;;;26.80;99.90;;;;;;5060938;28;20139;-76
2023/08/03 07:46:45;;;;;;;0.55;0.55;;;26.80;99.90;;;;;;5060738;28;20108;-77
2023/08/03 07:49:10;;;;;;;0.22;0.22;;;24.70;99.90;;;;;;5061413;28;20017;-81
2023/08/03 07:51:36;;;;;;;0.00;0.00;;;27.10;99.90;;;;;;5061623;28;20095;-77
2023/08/03 07:54:03;;;;;;;0.00;0.00;;;27.30;99.90;;;;;;5060696;28;20021;-81
2023/08/03 07:56:30;;;;;;;0.10;0.10;;;27.50;99.50;;;;;;5061576;28;20111;-88
2023/08/03 07:58:55;;;;;;;0.22;0.22;;;27.60;99.20;;;;;;5061279;28;20021;-82
2023/08/03 08:01:21;;;;;;;0.00;0.00;;;27.70;98.90;;;;;;5042383;28;20511;-79
2023/08/03 08:03:48;;;;;;;0.57;0.40;;;27.80;98.90;;;;;;5061060;28;20017;-84
2023/08/03 08:06:18;;;;;;;0.17;0.17;;;27.90;98.60;;;;;;5060651;28;20095;-78
2023/08/03 08:08:46;;;;;;;1.40;1.30;;;28.00;98.00;;;;;;5060743;28;20353;-77
2023/08/03 08:11:15;;;;;;;0.10;0.10;;;28.00;98.10;;;;;;5060399;28;20543;-82
2023/08/03 08:13:42;;;;;;;0.10;0.10;;;28.20;98.10;;;;;;5060384;28;20565;-79
2023/08/03 08:16:13;;;;;;;0.00;0.00;;;28.30;97.30;;;;;;5060677;28;20882;-76
2023/08/03 08:18:40;;;;;;;0.00;0.00;;;28.50;97.20;;;;;;5042745;28;20017;-78
2023/08/03 08:21:12;;;;;;;0.00;0.00;;;25.70;96.00;;;;;;5061447;28;20396;-89
2023/08/03 08:23:39;;;;;;;0.10;0.10;;;28.70;96.60;;;;;;5042564;28;20013;-78
2023/08/03 08:26:12;;;;;;;0.10;0.10;;;28.70;96.80;;;;;;5042889;28;20033;-90
2023/08/03 08:28:43;;;;;;;0.03;0.03;;;28.70;96.60;;;;;;5061179;28;20277;-79
2023/08/03 08:31:09;;;;;;;0.10;0.10;;;28.70;96.80;;;;;;5043315;28;20029;-79
2023/08/03 08:33:37;;;;;;;0.25;0.25;;;30.90;96.90;;;;;;5042133;28;20028;-78
2023/08/03 08:36:03;;;;;;;0.52;0.52;;;29.00;96.20;;;;;;5060844;28;20024;-77
2023/08/03 08:38:30;;;;;;;0.00;0.00;;;29.10;95.80;;;;;;5060381;28;20036;-77
2023/08/03 08:40:56;;;;;;;0.10;0.10;;;29.10;95.40;;;;;;5060038;28;20659;-78
2023/08/03 08:43:25;;;;;;;0.00;0.00;;;29.20;95.10;;;;;;5060260;28;20028;-78
2023/08/03 08:45:51;;;;;;;0.85;0.85;;;29.00;95.30;;;;;;5060263;28;20415;-83
2023/08/03 08:48:17;;;;;;;0.15;0.15;;;29.40;94.90;;;;;;5059876;28;20043;-82
2023/08/03 08:50:43;;;;;;;0.00;0.00;;;29.50;94.60;;;;;;5059320;28;20012;-86
2023/08/03 08:53:09;;;;;;;0.50;0.50;;;29.70;94.50;;;;;;5059590;28;20059;-81
2023/08/03 08:55:35;;;;;;;0.63;0.22;;;29.90;93.90;;;;;;5059277;28;20558;-77
2023/08/03 08:58:00;;;;;;;2.90;1.25;;;30.00;93.90;;;;;;5041571;28;20106;-82
2023/08/03 09:00:27;;;;;;;0.10;0.10;;;30.10;93.80;;;;;;5060082;28;20071;-84
2023/08/03 09:02:59;;;;;;;0.00;0.00;;;30.10;93.40;;;;;;5060623;28;20028;-83
2023/08/03 09:05:33;;;;;;;0.57;0.45;;;30.30;93.30;;;;;;5040825;28;20206;-78
2023/08/03 09:08:18;;;;;;;0.80;0.40;;;30.40;92.30;;;;;;5058701;28;20021;-78
2023/08/03 09:10:54;;;;;;;1.23;1.23;;;30.20;91.80;;;;;;5058753;28;20497;-79
2023/08/03 09:13:35;;;;;;;0.10;0.10;;;30.30;91.30;;;;;;5058213;28;20619;-77
2023/08/03 09:16:02;;;;;;;0.03;0.03;;;30.20;92.10;;;;;;5060849;28;20028;-79
2023/08/03 09:18:32;;;;;;;0.10;0.10;;;30.30;92.40;;;;;;5059004;28;20625;-87
2023/08/03 09:21:17;;;;;;;8.68;0.95;;;30.20;91.30;;;;;;5041011;28;20435;-78
2023/08/03 09:23:43;;;;;;;0.10;0.10;;;30.40;91.60;;;;;;5040597;28;20300;-90
2023/08/03 09:26:09;;;;;;;0.30;0.30;;;30.20;90.60;;;;;;5057368;28;20024;-82
2023/08/03 09:28:43;;;;;;;0.10;0.10;;;30.10;91.50;;;;;;5059766;28;20024;-79
2023/08/03 09:31:11;;;;;;;0.43;0.43;;;29.50;90.90;;;;;;5066264;28;20025;-79
2023/08/03 09:33:37;;;;;;;0.60;0.52;;;30.40;91.10;;;;;;5065191;28;20023;-91
2023/08/03 09:36:08;;;;;;;0.50;0.50;;;30.50;90.30;;;;;;5062000;28;20017;-79
2023/08/03 09:38:36;;;;;;;0.30;0.30;;;30.80;90.30;;;;;;5042612;28;20033;-86
2023/08/03 09:41:04;;;;;;;2.08;1.17;;;32.50;91.00;;;;;;5060724;28;20031;-85
2023/08/03 09:43:40;;;;;;;0.40;0.40;;;31.00;89.30;;;;;;5059822;28;20032;-78
2023/08/03 09:46:06;;;;;;;0.80;0.55;;;29.80;85.60;;;;;;5041317;28;20072;-83
2023/08/03 09:48:32;;;;;;;0.93;0.68;;;30.90;86.80;;;;;;5059584;28;20016;-84
2023/08/03 09:50:59;;;;;;;0.90;0.32;;;30.80;88.70;;;;;;5058406;28;20024;-83
2023/08/03 09:53:36;;;;;;;0.47;0.40;;;30.90;88.20;;;;;;5058846;28;20037;-81
2023/08/03 09:56:03;;;;;;;0.10;0.10;;;30.90;88.20;;;;;;5040950;28;20051;-82
2023/08/03 09:58:42;;;;;;;0.55;0.52;;;31.10;88.70;;;;;;5058739;28;20028;-82
2023/08/03 10:01:12;;;;;;;0.10;0.10;;;30.90;89.50;;;;;;5059477;28;20025;-79
2023/08/03 10:03:42;;;;;;;0.10;0.10;;;31.10;88.40;;;;;;5060294;28;20017;-79
2023/08/03 10:06:19;;;;;;;0.10;0.10;;;31.10;87.60;;;;;;5042989;28;20013;-84
2023/08/03 10:09:04;;;;;;;0.10;0.10;;;31.30;88.30;;;;;;5060342;28;20639;-82
2023/08/03 10:11:43;;;;;;;0.20;0.20;;;31.50;87.70;;;;;;5060665;28;20085;-79
2023/08/03 10:14:10;;;;;;;0.40;0.40;;;31.80;88.00;;;;;;5059134;28;20036;-77
2023/08/03 10:16:37;;;;;;;0.10;0.10;;;32.10;88.90;;;;;;5040957;28;20017;-76
2023/08/03 10:19:06;;;;;;;0.10;0.10;;;32.20;85.90;;;;;;5040759;28;20024;-83
2023/08/03 10:21:33;;;;;;;0.45;0.40;;;29.90;85.70;;;;;;5058356;28;20032;-78
2023/08/03 10:24:09;;;;;;;0.10;0.10;;;32.00;85.10;;;;;;5041098;28;20044;-79
2023/08/03 10:26:35;;;;;;;0.70;0.47;;;32.20;88.10;;;;;;5058560;28;20059;-79
2023/08/03 10:29:01;;;;;;;0.03;0.03;;;32.50;87.90;;;;;;5040597;28;20060;-82
2023/08/03 10:31:28;;;;;;;0.10;0.10;;;32.60;84.50;;;;;;5058493;28;20028;-85
2023/08/03 10:33:55;;;;;;;0.40;0.40;;;32.40;84.50;;;;;;5058171;28;20116;-78
2023/08/03 10:36:30;;;;;;;0.70;0.43;;;32.50;83.90;;;;;;5058280;28;20017;-79
2023/08/03 10:39:07;;;;;;;0.85;0.32;;;32.40;83.90;;;;;;5058586;28;20047;-79
2023/08/03 10:41:36;;;;;;;0.00;0.00;;;32.00;83.20;;;;;;5059350;28;20105;-78
2023/08/03 10:44:05;;;;;;;0.10;0.10;;;32.50;84.80;;;;;;5058644;28;20021;-79
2023/08/03 10:46:31;;;;;;;0.13;0.13;;;32.50;83.40;;;;;;5058006;28;20678;-78
2023/08/03 10:48:57;;;;;;;0.13;0.13;;;32.50;83.00;;;;;;5040007;28;20016;-77
2023/08/03 10:51:23;;;;;;;0.20;0.20;;;32.50;83.50;;;;;;5040137;28;20023;-78
2023/08/03 10:53:49;;;;;;;0.03;0.03;;;32.50;82.80;;;;;;5058159;28;20078;-77
2023/08/03 10:56:15;;;;;;;0.45;0.40;;;32.50;82.70;;;;;;5058017;28;20601;-87
2023/08/03 10:58:48;;;;;;;0.43;0.20;;;32.60;82.40;;;;;;5057550;28;20020;-78
2023/08/03 11:01:21;;;;;;;0.43;0.20;;;32.50;81.70;;;;;;5057691;28;20024;-81
2023/08/03 11:03:47;;;;;;;0.10;0.10;;;32.70;80.80;;;;;;5060713;28;20702;-83
2023/08/03 11:06:13;;;;;;;0.10;0.10;;;32.70;81.00;;;;;;5061873;28;20012;-78
2023/08/03 11:11:32;;;;;;;3.92;0.75;;;32.80;80.60;;;;;;5063620;28;20032;-87
2023/08/03 11:13:58;;;;;;;0.55;0.43;;;33.50;80.90;;;;;;5044974;28;20033;-78
2023/08/03 11:16:24;;;;;;;0.05;0.05;;;33.50;80.90;;;;;;5062050;28;20032;-81
2023/08/03 11:18:50;;;;;;;0.10;0.10;;;33.50;80.10;;;;;;5063230;28;20016;-81
2023/08/03 11:21:16;;;;;;;0.05;0.05;;;33.80;80.40;;;;;;5061554;28;20031;-80
2023/08/03 11:23:42;;;;;;;0.10;0.10;;;33.90;79.60;;;;;;5064228;28;20103;-79
2023/08/03 11:26:14;;;;;;;0.55;0.45;;;33.90;80.90;;;;;;5062299;28;20134;-81
2023/08/03 11:28:43;;;;;;;0.30;0.28;;;34.20;78.70;;;;;;5063444;28;20104;-83
2023/08/03 11:31:20;;;;;;;2.40;1.05;;;33.20;76.70;;;;;;5061654;28;20055;-84
2023/08/03 11:33:49;;;;;;;0.80;0.70;;;32.90;77.40;;;;;;5061318;28;20017;-77
2023/08/03 11:36:17;;;;;;;0.32;0.32;;;34.10;77.40;;;;;;5062405;28;20036;-82
2023/08/03 11:38:54;;;;;;;0.05;0.05;;;34.20;77.70;;;;;;5044847;28;20029;-86
2023/08/03 11:41:26;;;;;;;0.15;0.10;;;34.10;77.60;;;;;;5043445;28;20097;-80
2023/08/03 11:43:52;;;;;;;0.32;0.20;;;34.00;78.20;;;;;;5044075;28;20103;-80
2023/08/03 11:46:29;;;;;;;0.10;0.10;;;34.00;77.90;;;;;;5061260;28;20135;-85
2023/08/03 11:49:03;;;;;;;0.10;0.10;;;34.40;76.60;;;;;;5061424;28;20028;-79
2023/08/03 11:51:37;;;;;;;0.00;0.00;;;34.50;76.30;;;;;;5062361;28;20647;-79
2023/08/03 11:54:08;;;;;;;0.63;0.52;;;34.60;75.90;;;;;;5061202;28;20418;-86
2023/08/03 11:56:34;;;;;;;0.77;0.32;;;35.10;75.80;;;;;;5060768;28;20024;-80
2023/08/03 11:59:04;;;;;;;0.10;0.10;;;35.50;74.80;;;;;;5062253;28;20025;-86
2023/08/03 12:01:30;;;;;;;0.38;0.30;;;35.80;74.60;;;;;;5061909;28;20063;-82
2023/08/03 12:04:13;;;;;;;0.63;0.60;;;36.20;73.80;;;;;;5061296;28;20101;-87
2023/08/03 12:06:53;;;;;;;0.20;0.20;;;36.00;72.90;;;;;;5061977;28;20025;-86
2023/08/03 12:09:21;;;;;;;0.50;0.50;;;33.20;70.60;;;;;;5063027;28;20028;-89
2023/08/03 12:11:50;;;;;;;0.20;0.20;;;36.60;72.80;;;;;;5045621;28;20012;-84
2023/08/03 12:14:17;;;;;;;1.27;0.63;;;37.80;72.70;;;;;;5062586;28;20291;-88
2023/08/03 12:16:43;;;;;;;0.43;0.40;;;36.90;72.00;;;;;;5045978;28;20449;-85
2023/08/03 12:19:11;;;;;;;0.20;0.20;;;37.00;71.90;;;;;;5047905;28;20016;-83
2023/08/03 12:21:38;;;;;;;0.65;0.30;;;37.20;72.80;;;;;;5040774;28;20044;-81
2023/08/03 12:24:07;;;;;;;0.60;0.45;;;37.50;72.50;;;;;;5040884;28;20518;-83
2023/08/03 12:26:50;;;;;;;0.20;0.17;;;37.50;70.10;;;;;;5038529;28;20045;-88
2023/08/03 12:29:16;;;;;;;0.55;0.28;;;37.70;72.10;;;;;;5020337;28;20029;-83
2023/08/03 12:31:43;;;;;;;0.73;0.55;;;34.70;68.80;;;;;;5020533;28;20036;-79
2023/08/03 12:34:09;;;;;;;0.30;0.30;;;37.50;70.40;;;;;;4997038;28;20130;-90
2023/08/03 12:36:40;;;;;;;0.30;0.30;;;37.50;69.70;;;;;;4980956;28;20046;-79
2023/08/03 12:39:13;;;;;;;0.50;0.50;;;37.60;71.40;;;;;;4980615;28;20755;-80
2023/08/03 12:41:48;;;;;;;0.40;0.30;;;38.00;70.40;;;;;;4980359;28;20038;-79
2023/08/03 12:44:15;;;;;;;0.32;0.32;;;37.50;71.10;;;;;;4997006;28;20030;-79
2023/08/03 12:46:46;;;;;;;0.73;0.40;;;38.10;69.90;;;;;;4996540;28;20030;-80
2023/08/03 12:49:17;;;;;;;1.05;0.47;;;38.10;68.60;;;;;;4980217;28;20724;-79
2023/08/03 12:51:54;;;;;;;0.17;0.17;;;38.40;68.90;;;;;;4997938;28;20034;-80
2023/08/03 12:54:30;;;;;;;1.85;0.50;;;38.70;67.80;;;;;;5016309;28;20306;-81